Shawbury (EGOS)

METAR

EGOS 192350Z AUTO 15007KT 9999 SCT038/// 13/11 Q0993

QNH
993
TEMP
13 °C
TAF

TAF TAF EGOS 171634Z 1718/1821 CNL